Latest Weather Observations for Mornington Island Airport

IDQ60801

Issued at 5:35 pm EST Saturday 25 October 2014 (issued every 30 minutes, with the page automatically refreshed every 10 minutes)

About weather observations | Map of weather stations | Latest weather observations for QLD | Other Formats
Station Details ID: 029182 Name: MORNINGTON ISLAND AIRPORT Lat: -16.66 Lon: 139.17 Height: 9.0 m
Data from the previous 72 hours. | See also: Recent months at Mornington Island Airport
Date/Time
EST
Temp
°C
App
Temp
°C
Dew
Point
Rel
Hum
%
Delta-T
°C
Wind Press
QNH
hPa
Press
MSL
hPa
Rain
since 9 am
mm
Dir
 
Spd
km/h
Gust
km/h
Spd
kts
Gust
kts
25/05:30pm 28.8 26.9 13.1 38 9.3 NNW 15 20 8 11 1013.9 1013.8 0.0
25/05:00pm 29.2 27.6 13.8 39 9.2 NNW 15 22 8 12 1013.9 1013.8 0.0
25/04:30pm 29.3 26.9 12.7 36 9.8 NW 17 24 9 13 1013.9 1013.8 0.0
25/04:00pm 29.8 27.3 12.3 34 10.3 NW 17 22 9 12 1013.8 1013.7 0.0
25/03:30pm 29.9 27.8 12.3 33 10.3 NW 15 22 8 12 1014.1 1014.0 0.0
25/03:00pm 29.5 26.9 13.3 37 9.6 NW 19 24 10 13 1014.4 1014.3 0.0
25/02:30pm 29.7 27.4 14.7 40 9.1 NW 20 26 11 14 1014.5 1014.4 0.0
25/02:00pm 30.2 27.5 13.5 36 10.0 NNW 20 32 11 17 1014.8 1014.7 0.0
25/01:30pm 31.3 29.1 14.4 35 10.3 NNW 19 22 10 12 1015.1 1015.0 0.0
25/01:00pm 32.0 29.9 11.2 28 12.1 S 13 20 7 11 1015.5 1015.4 0.0
25/12:30pm 32.1 29.3 7.0 21 13.7 SSE 11 20 6 11 1016.1 1016.0 0.0
25/12:00pm 31.5 28.4 7.2 22 13.2 ESE 13 24 7 13 1016.6 1016.5 0.0
25/11:30am 32.5 28.6 8.7 23 13.3 SE 19 28 10 15 1017.1 1017.0 0.0
25/11:00am 30.9 26.9 9.2 26 12.1 ESE 20 32 11 17 1017.3 1017.2 0.0
25/10:30am 31.5 26.9 12.3 31 11.3 E 28 33 15 18 1017.5 1017.4 0.0
25/10:00am 30.4 28.5 14.1 37 9.8 ENE 17 26 9 14 1017.7 1017.6 0.0
25/09:30am 29.6 27.7 15.7 43 8.6 ENE 20 28 11 15 1017.9 1017.8 0.0
25/09:00am 29.1 27.7 17.0 48 7.6 NE 20 28 11 15 1017.7 1017.6 0.0
25/08:30am 28.1 25.9 17.0 51 6.9 ENE 24 35 13 19 1017.6 1017.5 0.0
25/08:00am 27.4 28.0 19.5 62 5.1 NE 15 22 8 12 1017.4 1017.3 0.0
25/07:30am 25.4 27.5 20.2 73 3.4 E 9 11 5 6 1017.1 1017.0 0.0
25/07:00am 24.0 25.8 20.3 80 2.4 ESE 11 13 6 7 1016.8 1016.7 0.0
25/06:30am 22.3 24.0 18.5 79 2.4 ESE 7 9 4 5 1016.0 1015.9 0.0
25/06:00am 22.7 23.7 18.7 78 2.5 E 11 13 6 7 1015.6 1015.5 0.0
25/05:30am 23.0 23.8 19.0 78 2.5 ENE 13 17 7 9 1015.2 1015.1 0.0
25/05:00am 21.9 22.7 19.1 84 1.8 NE 13 19 7 10 1014.9 1014.8 0.0
25/04:30am 23.4 24.8 19.5 79 2.5 ESE 11 15 6 8 1014.3 1014.2 0.0
25/04:00am 24.2 26.6 20.1 78 2.7 SW 7 13 4 7 1012.9 1012.8 0.0
25/03:30am 24.5 26.9 20.0 76 2.9 SSW 7 11 4 6 1012.7 1012.6 0.0
25/03:00am 25.4 27.3 20.6 75 3.1 SSW 11 19 6 10 1012.8 1012.7 0.0
25/02:30am 25.6 28.1 21.1 76 3.0 SW 9 15 5 8 1013.1 1013.0 0.0
25/02:00am 25.9 27.9 20.7 73 3.4 SW 11 15 6 8 1013.2 1013.1 0.0
25/01:30am 25.9 28.0 20.9 74 3.3 WSW 11 17 6 9 1013.4 1013.3 0.0
25/01:00am 25.8 27.3 19.7 69 3.9 SW 11 20 6 11 1013.7 1013.6 0.0
25/12:30am 25.9 27.4 19.8 69 4.0 WSW 11 15 6 8 1014.0 1013.9 0.0
25/12:00am 25.8 27.4 19.9 70 3.8 W 11 15 6 8 1014.3 1014.2 0.0
 
Date/Time
EST
Temp
°C
App
Temp
°C
Dew
Point
Rel
Hum
%
Delta-T
°C
Wind Press
QNH
hPa
Press
MSL
hPa
Rain
since 9 am
mm
Dir
 
Spd
km/h
Gust
km/h
Spd
kts
Gust
kts
24/11:30pm 25.7 27.1 19.6 69 3.9 W 11 13 6 7 1014.5 1014.4 0.0
24/11:00pm 25.8 27.1 19.2 67 4.2 W 11 15 6 8 1014.7 1014.6 0.0
24/10:30pm 26.0 27.0 19.4 67 4.3 W 13 15 7 8 1014.7 1014.6 0.0
24/10:00pm 26.0 26.9 19.2 66 4.4 W 13 15 7 8 1014.6 1014.5 0.0
24/09:30pm 25.8 26.8 18.7 65 4.5 NW 11 13 6 7 1014.3 1014.2 0.0
24/09:00pm 25.8 26.7 18.5 64 4.6 NW 11 13 6 7 1014.0 1013.9 0.0
24/08:30pm 25.9 26.4 18.3 63 4.8 NW 13 17 7 9 1013.9 1013.8 0.0
24/08:00pm 26.1 26.8 18.8 64 4.7 NNW 13 17 7 9 1013.7 1013.6 0.0
24/07:30pm 26.1 26.3 18.5 63 4.8 NW 15 17 8 9 1013.5 1013.4 0.0
24/07:00pm 26.1 27.0 18.5 63 4.8 NW 11 15 6 8 1013.5 1013.4 0.0
24/06:30pm 26.6 27.0 19.0 63 4.9 NNW 15 17 8 9 1013.4 1013.3 0.0
24/06:00pm 27.4 27.9 19.2 61 5.3 NW 15 19 8 10 1013.4 1013.3 0.0
24/05:30pm 27.9 28.3 18.9 58 5.8 NW 15 20 8 11 1013.3 1013.2 0.0
24/05:00pm 28.3 27.9 18.1 54 6.5 NNW 17 19 9 10 1013.5 1013.4 0.0
24/04:30pm 28.7 28.0 18.2 53 6.7 WNW 19 24 10 13 1013.6 1013.5 0.0
24/04:00pm 29.1 27.7 15.6 44 8.3 N 17 20 9 11 1013.5 1013.4 0.0
24/03:30pm 30.1 28.5 16.5 44 8.5 N 20 30 11 16 1013.5 1013.4 0.0
24/03:00pm 29.5 28.4 16.3 45 8.2 N 17 28 9 15 1013.8 1013.7 0.0
24/02:30pm 30.7 28.8 16.7 43 8.8 N 22 30 12 16 1013.9 1013.8 0.0
24/02:00pm 29.1 26.8 16.6 46 7.8 N 24 33 13 18 1014.3 1014.2 0.0
24/01:30pm 29.9 27.3 16.0 43 8.6 N 24 35 13 19 1014.7 1014.6 0.0
24/01:00pm 30.2 26.8 15.9 42 8.9 N 28 37 15 20 1015.2 1015.1 0.0
24/12:30pm 29.9 27.4 17.0 45 8.1 N 26 35 14 19 1015.6 1015.5 0.0
24/12:00pm 30.4 28.0 18.2 48 7.8 N 28 37 15 20 1016.1 1016.0 0.0
24/11:30am 29.8 28.4 17.9 48 7.6 N 22 28 12 15 1016.7 1016.6 0.0
24/11:00am 30.4 29.2 17.1 44 8.4 NNE 19 22 10 12 1017.0 1016.9 0.0
24/10:30am 30.2 29.4 18.0 48 7.8 N 19 24 10 13 1017.2 1017.1 0.0
24/10:00am 29.3 28.1 17.5 49 7.5 ENE 20 24 11 13 1017.5 1017.4 0.0
24/09:30am 29.0 27.2 17.8 50 7.1 NE 24 30 13 16 1017.5 1017.4 0.0
24/09:00am 28.5 27.7 18.0 53 6.7 NE 19 26 10 14 1017.4 1017.3 0.0
24/08:30am 27.4 26.8 18.9 59 5.5 NE 20 30 11 16 1017.4 1017.3 0.0
24/08:00am 27.4 26.9 19.2 61 5.3 NE 20 32 11 17 1017.1 1017.0 0.0
24/07:30am 26.2 26.4 19.3 65 4.4 ENE 17 24 9 13 1016.8 1016.7 0.0
24/07:00am 24.6 25.2 19.4 73 3.3 ENE 15 19 8 10 1016.2 1016.1 0.0
24/06:30am 23.1 24.0 19.3 79 2.4 E 13 15 7 8 1015.7 1015.6 0.0
24/06:00am 23.0 24.0 19.4 80 2.3 ENE 13 17 7 9 1015.2 1015.1 0.0
24/05:30am 22.8 24.0 19.0 79 2.4 ENE 11 15 6 8 1014.8 1014.7 0.0
24/05:00am 23.3 24.2 19.2 78 2.6 ENE 13 17 7 9 1014.4 1014.3 0.0
24/04:30am 25.0 27.0 20.0 74 3.2 SW 9 13 5 7 1013.2 1013.1 0.0
24/04:00am 25.1 27.3 20.4 75 3.1 SW 9 15 5 8 1012.7 1012.6 0.0
24/03:30am 25.2 27.4 20.5 75 3.1 WSW 9 15 5 8 1012.6 1012.5 0.0
24/03:00am 25.3 27.5 20.5 75 3.1 SW 9 15 5 8 1012.7 1012.6 0.0
24/02:30am 25.9 28.2 21.3 76 3.0 W 11 17 6 9 1013.0 1012.9 0.0
24/02:00am 26.0 28.2 20.3 71 3.7 WSW 9 13 5 7 1013.1 1013.0 0.0
24/01:30am 25.8 28.1 20.6 73 3.4 WSW 9 11 5 6 1013.3 1013.2 0.0
24/01:00am 26.0 28.2 20.3 71 3.7 WSW 9 13 5 7 1013.5 1013.4 0.0
24/12:30am 25.9 27.8 19.8 69 4.0 WSW 9 13 5 7 1013.9 1013.8 0.0
24/12:00am 26.0 27.6 19.9 69 4.0 W 11 15 6 8 1014.1 1014.0 0.0
 
Date/Time
EST
Temp
°C
App
Temp
°C
Dew
Point
Rel
Hum
%
Delta-T
°C
Wind Press
QNH
hPa
Press
MSL
hPa
Rain
since 9 am
mm
Dir
 
Spd
km/h
Gust
km/h
Spd
kts
Gust
kts
23/11:30pm 25.8 27.1 19.2 67 4.2 WNW 11 15 6 8 1014.2 1014.1 0.0
23/11:00pm 25.8 27.1 18.5 64 4.6 WNW 9 11 5 6 1014.4 1014.3 0.0
23/10:30pm 26.1 27.2 18.8 64 4.7 NW 11 13 6 7 1014.6 1014.5 0.0
23/10:00pm 25.9 26.8 18.3 63 4.8 NW 11 13 6 7 1014.5 1014.4 0.0
23/09:30pm 25.8 26.6 18.2 63 4.8 WNW 11 13 6 7 1014.2 1014.1 0.0
23/09:00pm 26.0 26.3 17.9 61 5.1 NW 13 15 7 8 1014.1 1014.0 0.0
23/08:30pm 26.1 26.4 18.0 61 5.1 NW 13 17 7 9 1014.0 1013.9 0.0
23/08:00pm 26.2 26.4 17.6 59 5.4 NW 13 17 7 9 1013.9 1013.8 0.0
23/07:30pm 26.3 26.3 17.1 57 5.7 NW 13 17 7 9 1013.6 1013.5 0.0
23/07:00pm 26.4 26.2 17.5 58 5.6 NW 15 17 8 9 1013.4 1013.3 0.0
23/06:30pm 26.8 26.8 17.3 56 5.9 NW 13 17 7 9 1013.2 1013.1 0.0
23/06:00pm 27.5 27.3 17.7 55 6.2 NW 15 19 8 10 1013.1 1013.0 0.0
23/05:30pm 28.1 26.9 17.0 51 6.9 NNW 19 22 10 12 1013.0 1012.9 0.0
23/05:00pm 28.7 27.0 16.3 47 7.7 NNW 20 24 11 13 1012.9 1012.8 0.0
23/04:30pm 29.1 28.3 17.0 48 7.6 NW 17 24 9 13 1013.0 1012.9 0.0
23/04:00pm 29.6 28.5 17.4 47 7.7 NW 19 30 10 16 1013.2 1013.1 0.0
23/03:30pm 29.4 29.0 16.2 44 8.2 W 13 19 7 10 1013.4 1013.3 0.0
23/03:00pm 30.1 29.9 15.8 42 8.9 WNW 11 20 6 11 1013.6 1013.5 0.0
23/02:30pm 30.1 28.6 14.2 38 9.6 N 15 22 8 12 1013.6 1013.5 0.0
23/02:00pm 30.5 28.9 16.1 41 9.0 N 19 26 10 14 1013.8 1013.7 0.0
23/01:30pm 30.6 28.5 16.2 41 9.0 NNW 22 32 12 17 1014.2 1014.1 0.0
23/01:00pm 32.3 29.2 10.4 26 12.6 ESE 17 26 9 14 1014.8 1014.7 0.0
23/12:30pm 32.2 29.6 10.8 27 12.4 E 15 22 8 12 1015.1 1015.0 0.0
23/12:00pm 32.6 27.5 10.6 26 12.7 ENE 28 33 15 18 1015.6 1015.5 0.0
23/11:30am 31.9 27.2 9.4 25 12.7 E 24 39 13 21 1015.8 1015.7 0.0
23/11:00am 32.0 29.5 12.3 30 11.6 ENE 17 33 9 18 1016.1 1016.0 0.0
23/10:30am 32.0 29.9 13.7 33 11.1 ENE 17 24 9 13 1016.5 1016.4 0.0
23/10:00am 30.7 28.1 15.9 40 9.2 E 24 33 13 18 1016.6 1016.5 0.0
23/09:30am 29.6 27.2 16.4 45 8.2 NE 24 33 13 18 1016.9 1016.8 0.0
23/09:00am 28.8 26.9 16.7 48 7.6 E 22 26 12 14 1016.9 1016.8 0.0
23/08:30am 29.0 26.9 17.2 49 7.4 NE 24 33 13 18 1016.8 1016.7 0.0
23/08:00am 27.6 26.7 19.1 59 5.5 NE 22 33 12 18 1016.2 1016.1 0.0
23/07:30am 26.1 26.3 20.2 70 3.8 ENE 19 28 10 15 1015.8 1015.7 0.0
23/07:00am 24.6 26.1 20.5 78 2.7 E 13 17 7 9 1015.4 1015.3 0.0
23/06:30am 22.7 25.4 20.2 86 1.6 E 6 7 3 4 1015.1 1015.0 0.0
23/06:00am 22.7 25.1 20.0 85 1.7 ENE 7 11 4 6 1014.6 1014.5 0.0
23/05:30am 23.2 25.9 20.3 84 1.9 SE 6 7 3 4 1014.1 1014.0 0.0
23/05:00am 23.7 26.4 20.6 83 2.0 SSE 7 11 4 6 1013.6 1013.5 0.0
23/04:30am 25.0 27.3 21.3 80 2.4 SW 11 15 6 8 1012.7 1012.6 0.0
23/04:00am 24.4 27.2 21.5 84 1.9 WSW 9 13 5 7 1012.5 1012.4 0.0
23/03:30am 23.6 26.1 19.9 80 2.4 SSW 6 9 3 5 1012.9 1012.8 0.0
23/03:00am 25.4 28.2 20.9 76 3.0 WSW 7 11 4 6 1013.0 1012.9 0.0
23/02:30am 25.5 27.8 20.7 75 3.1 WSW 9 11 5 6 1013.3 1013.2 0.0
23/02:00am 25.5 28.2 20.7 75 3.1 WSW 7 11 4 6 1013.7 1013.6 0.0
23/01:30am 25.8 27.8 20.8 74 3.3 W 11 15 6 8 1013.8 1013.7 0.0
23/01:00am 25.7 27.6 20.5 73 3.4 W 11 17 6 9 1014.2 1014.1 0.0
23/12:30am 25.7 27.5 20.3 72 3.5 W 11 15 6 8 1014.4 1014.3 0.0
23/12:00am 25.8 27.7 20.6 73 3.4 W 11 15 6 8 1014.6 1014.5 0.0
 
Date/Time
EST
Temp
°C
App
Temp
°C
Dew
Point
Rel
Hum
%
Delta-T
°C
Wind Press
QNH
hPa
Press
MSL
hPa
Rain
since 9 am
mm
Dir
 
Spd
km/h
Gust
km/h
Spd
kts
Gust
kts
22/11:30pm 25.9 27.2 20.2 71 3.7 WNW 13 17 7 9 1014.8 1014.7 0.0
22/11:00pm 26.0 26.9 20.1 70 3.8 NW 15 17 8 9 1014.8 1014.7 0.0
22/10:30pm 26.0 27.3 20.1 70 3.8 NW 13 17 7 9 1014.9 1014.8 0.0
22/10:00pm 26.0 26.8 19.9 69 4.0 NNW 15 20 8 11 1014.6 1014.5 0.0
22/09:30pm 26.1 26.4 19.7 68 4.1 NW 17 19 9 10 1014.6 1014.5 0.0
22/09:00pm 26.1 26.6 19.2 65 4.4 NW 15 19 8 10 1014.4 1014.3 0.0
22/08:30pm 26.1 26.6 19.2 65 4.4 NW 15 17 8 9 1014.4 1014.3 0.0
22/08:00pm 26.2 26.6 19.1 65 4.6 NW 15 17 8 9 1014.3 1014.2 0.0
22/07:30pm 26.1 26.6 19.2 65 4.4 NNW 15 17 8 9 1014.3 1014.2 0.0
22/07:00pm 26.2 27.0 19.1 65 4.6 NNW 13 17 7 9 1014.1 1014.0 0.0
22/06:30pm 26.6 27.1 19.2 64 4.8 NNW 15 19 8 10 1014.0 1013.9 0.0
22/06:00pm 27.4 27.0 18.9 59 5.5 NNW 19 20 10 11 1014.0 1013.9 0.0

Other Formats:

Comma delimited format used in spreadsheet applications
http://www.bom.gov.au/fwo/IDQ60801/IDQ60801.94254.axf

JavaScript Object Notation format (JSON) in row-major order
http://www.bom.gov.au/fwo/IDQ60801/IDQ60801.94254.json